KEKN/EKN METAR and TAF weather

Enter ICAO airport designator
Station Type Date Time Source
KEKN METAR 2019/06/26 21:51 UTC NOAA

KEKN 262151Z AUTO 28005KT 10SM FEW050 28/16 A3019 RMK AO2 SLP215 T02830161 TSNO


Station Type Date Time Source
KEKN Decoded METAR 2019/06/26 21:51 UTC NOAA

JENNINGS RANDOLPH FIELD, WV, United States (KEKN) 38-53N 079-51W 603M
Jun 26, 2019 - 05:51 PM EDT / 2019.06.26 2151 UTC
Wind: from the W (280 degrees) at 6 MPH (5 KT):0
Visibility: 10 mile(s):0
Sky conditions: mostly clear
Temperature: 82.9 F (28.3 C)
Dew Point: 61.0 F (16.1 C)
Relative Humidity: 47%
Pressure (altimeter): 30.19 in. Hg (1022 hPa)
ob: KEKN 262151Z AUTO 28005KT 10SM FEW050 28/16 A3019 RMK AO2 SLP215 T02830161 TSNO
cycle: 22

Station Type Date Time Source
KEKN TAF 2019/06/26 18:36 UTC NOAA

TAF KEKN 261733Z 2618/2718 26007KT P6SM SCT045
FM270700 00000KT 1/4SM FG BKN001
FM271330 27002KT P6SM SCT045

Example: see airport list